Aérodrome :
LOGIN :

S'inscrire | Disclaimer

   EN    FR    IT 

 










Légende :    VFR   VFR Marginal   IFR   IFR Intensif   IFR Très Intensif
Visi : 
Plafond : 
>= 8 km
>= 3000ft
5 à 8 km
1000 à 3000 ft
1500m à 5 km
500 à 1000 ft
800 à 1500m
200 à 500 ft
< 800m
< 200 ft
Symboles :   Orages  Brouillard  Fortes neiges  Fortes précipitations  Vent > 20 kt
SIGMETs :   Divers  Orages  Givrage  Turbulence  Onde Orograph.  Cendres Volcan.







- Altitude de l'aérodrome : 218 ft
- Code IATA : LBG
- Voir les cartes d'approche


LFPB - Paris / Le Bourget

DERNIER METAR :
  • 221100Z AUTO 17005KT 0800 R27/1200N R09/1200U R07/1100U -SN FG OVC006 00/M01 Q1007 BECMG 6000 NSW BKN012

METARs EXPIRÉS :
  • 221030Z AUTO 18007KT 1300 1200 R27/1600D R09/1700N R07/1600D -SN BR OVC009 00/M01 Q1007 BECMG 6000 NSW BKN012
  • 221000Z AUTO 17007KT 1100 0800 R27/1400U R09/1500U R07/1200D -SN BCFG BKN007/// OVC012/// ///TCU M00/M01 Q1007 BECMG 3000 -SN BKN010
  • 220930Z AUTO 16008KT 1000 0900 R27/1500D R09/1400D R07/1300D -SN BCFG OVC006/// ///TCU M01/M02 Q1008 BECMG 3000 -SN BKN010
  • 220900Z AUTO 17008KT 1500 1300 R27/1900U R09/P2000 R07/1900U -SN BR OVC008/// ///TCU M01/M02 Q1008 BECMG 3000 -SN BKN010
  • 220830Z AUTO 16009KT 2700 -SN BR BKN010/// BKN017/// BKN023/// ///TCU M01/M03 Q1008 BECMG 3000 -SN BKN010

TAF AMD TAF LFPB
Valide du 22 à 07h jusqu'au 23 à 06h UTC


220747Z 2207/2306 18010KT 3000 -SN BKN010
PROB40
TEMPO 2208/2210 0900 SN BKN005
BECMG 2212/2214 6000 NSW BKN012
BECMG 2216/2218 BKN008
PROB40
TEMPO 2221/2306 1500 -SHSN BKN006 SCT012TCU
ATIS : +33 1 48 62 43 92
Pas de NOTAMs connus pour ce terrain.



MET'MAP, la Météo Aéronautique d'un coup d'oeil ! - Copyright ORBIFLY Décembre 2007 - Disclaimer

ORBIFLY MET'MAP TEAM :

Programmation & Développement : Alexandra Zaïnal
Conception & Développement : Baudouin d'Aumeries
Co-Programmation & Développement : Marc-Olivier Méhu
Soutien technique & logistique : Manuel Goepfert

Contact : metmap@orbifly.com




SOURCES & CREDITS :

   NOAA